Weather at Armstrong Airport

Public forecast

Using degrees Celsius for public forecast. Weather courtesy of forecast.io.

Current aviation weather report (METAR) for Armstrong Airport

2024/05/28 23:00 (retrieved 12 minutes ago)

CYYW 282300Z AUTO VRB07KT 9SM CLR 16/M01 A3014 RMK SLP207

Closest aviation forecast (TAF) to Armstrong Airport

Closest forecast is Geraldton Greenstone Regional Airport, 82.0 nm (151.8 km) ESE.

2024/05/28 20:42 (retrieved 3 hours ago)

TAF CYGQ 281940Z 2820/2908 02010G20KT P6SM SKC BECMG 2901/2903 03006KT RMK FCST BASED ON AUTO OBS NXT FCST BY 290200Z